createdAt,value
2018-06-20T00:00:38.939Z,18.12
2018-06-20T00:01:38.973Z,18.12
2018-06-20T00:02:38.963Z,18.10
2018-06-20T00:03:38.941Z,18.12
2018-06-20T00:04:38.901Z,18.13
2018-06-20T00:05:38.986Z,18.14
2018-06-20T00:06:38.941Z,18.14
2018-06-20T00:07:38.860Z,18.16
2018-06-20T00:08:39.003Z,18.16
2018-06-20T00:09:38.865Z,18.14
2018-06-20T00:10:38.911Z,18.12
2018-06-20T00:11:38.774Z,18.12
2018-06-20T00:12:38.833Z,18.12
2018-06-20T00:13:38.737Z,18.12
2018-06-20T00:14:38.735Z,18.10
2018-06-20T00:15:38.734Z,18.07
2018-06-20T00:16:38.836Z,18.06
2018-06-20T00:17:38.741Z,18.05
2018-06-20T00:18:38.801Z,18.03
2018-06-20T00:19:38.841Z,18.02
2018-06-20T00:20:38.744Z,18.00
2018-06-20T00:21:38.886Z,18.00
2018-06-20T00:22:38.886Z,17.98
2018-06-20T00:23:38.958Z,17.96
2018-06-20T00:24:38.889Z,17.94
2018-06-20T00:25:38.887Z,17.94
2018-06-20T00:26:39.059Z,17.92
2018-06-20T00:27:38.893Z,17.91
2018-06-20T00:28:38.964Z,17.91
2018-06-20T00:29:38.889Z,17.89
2018-06-20T00:30:38.971Z,17.89
2018-06-20T00:31:38.901Z,17.88
2018-06-20T00:32:38.901Z,17.88
2018-06-20T00:33:38.965Z,17.87
2018-06-20T00:34:38.965Z,17.85
2018-06-20T00:35:38.892Z,17.85
2018-06-20T00:36:38.892Z,17.83
2018-06-20T00:37:38.895Z,17.83
2018-06-20T00:38:38.970Z,17.80
2018-06-20T00:39:38.895Z,17.80
2018-06-20T00:40:38.914Z,17.80
2018-06-20T00:41:39.026Z,17.79
2018-06-20T00:42:38.942Z,17.80
2018-06-20T00:43:38.894Z,17.80
2018-06-20T00:44:39.004Z,17.80
2018-06-20T00:45:38.942Z,17.79
2018-06-20T00:46:38.910Z,17.79
2018-06-20T00:47:39.006Z,17.76
2018-06-20T00:48:38.991Z,17.75
2018-06-20T00:49:38.993Z,17.73
2018-06-20T00:50:38.909Z,17.72
2018-06-20T00:51:38.904Z,17.68
2018-06-20T00:52:38.967Z,17.68
2018-06-20T00:53:38.910Z,17.68
2018-06-20T00:54:38.901Z,17.68
2018-06-20T00:55:38.992Z,17.66
2018-06-20T00:56:38.900Z,17.66
2018-06-20T00:57:38.898Z,17.65
2018-06-20T00:58:38.974Z,17.66
2018-06-20T00:59:38.905Z,17.65
2018-06-20T01:00:38.972Z,17.65
2018-06-20T01:01:38.905Z,17.64
2018-06-20T01:02:38.909Z,17.64
2018-06-20T01:03:38.976Z,17.61
2018-06-20T01:04:38.966Z,17.61
2018-06-20T01:05:38.907Z,17.61
2018-06-20T01:06:38.978Z,17.60
2018-06-20T01:07:38.910Z,17.61
2018-06-20T01:08:38.978Z,17.60
2018-06-20T01:09:38.912Z,17.58
2018-06-20T01:10:38.979Z,17.58
2018-06-20T01:11:39.027Z,17.58
2018-06-20T01:12:38.884Z,17.57
2018-06-20T01:13:38.921Z,17.58
2018-06-20T01:14:38.982Z,17.58
2018-06-20T01:15:38.966Z,17.57
2018-06-20T01:16:38.972Z,17.55
2018-06-20T01:17:38.892Z,17.54
2018-06-20T01:18:38.859Z,17.53
2018-06-20T01:19:38.979Z,17.53
2018-06-20T01:20:38.895Z,17.53
2018-06-20T01:21:39.054Z,17.53
2018-06-20T01:22:38.915Z,17.50
2018-06-20T01:23:39.057Z,17.50
2018-06-20T01:24:38.996Z,17.49
2018-06-20T01:25:38.997Z,17.47
2018-06-20T01:26:39.056Z,17.46
2018-06-20T01:27:38.930Z,17.44
2018-06-20T01:28:38.974Z,17.44
2018-06-20T01:29:38.935Z,17.43
2018-06-20T01:30:39.009Z,17.40
2018-06-20T01:31:39.038Z,17.39
2018-06-20T01:32:38.975Z,17.37
2018-06-20T01:33:39.041Z,17.36
2018-06-20T01:34:39.042Z,17.33
2018-06-20T01:35:39.003Z,17.31
2018-06-20T01:36:39.044Z,17.29
2018-06-20T01:37:39.008Z,17.24
2018-06-20T01:38:39.040Z,17.21
2018-06-20T01:39:39.003Z,17.16
2018-06-20T01:40:39.044Z,17.14
2018-06-20T01:41:39.066Z,17.12
2018-06-20T01:42:39.010Z,17.09
2018-06-20T01:43:38.972Z,17.08
2018-06-20T01:44:39.043Z,17.05
2018-06-20T01:45:38.993Z,17.01
2018-06-20T01:46:39.030Z,16.98
2018-06-20T01:47:39.033Z,16.98
2018-06-20T01:48:38.952Z,16.95
2018-06-20T01:49:38.987Z,16.94
2018-06-20T01:50:38.987Z,16.91
2018-06-20T01:51:38.986Z,16.87
2018-06-20T01:52:38.978Z,16.85
2018-06-20T01:53:38.941Z,16.83
2018-06-20T01:54:39.053Z,16.79
2018-06-20T01:55:39.067Z,16.76
2018-06-20T01:56:39.022Z,16.72
2018-06-20T01:57:39.028Z,16.68
2018-06-20T01:58:38.922Z,16.61
2018-06-20T01:59:38.991Z,16.58
2018-06-20T02:00:38.998Z,16.54
2018-06-20T02:01:39.031Z,16.48
2018-06-20T02:02:38.959Z,16.46
2018-06-20T02:03:38.983Z,16.39
2018-06-20T02:04:38.993Z,16.38
2018-06-20T02:05:39.046Z,16.33
2018-06-20T02:06:39.055Z,16.29
2018-06-20T02:07:39.051Z,16.28
2018-06-20T02:08:39.056Z,16.24
2018-06-20T02:09:39.025Z,16.21
2018-06-20T02:10:38.942Z,16.17
2018-06-20T02:11:39.062Z,16.13
2018-06-20T02:12:39.007Z,16.11
2018-06-20T02:13:39.006Z,16.10
2018-06-20T02:14:38.994Z,16.10
2018-06-20T02:15:39.069Z,16.06
2018-06-20T02:16:38.992Z,16.02
2018-06-20T02:17:38.992Z,15.95
2018-06-20T02:18:39.048Z,15.90
2018-06-20T02:19:39.004Z,15.86
2018-06-20T02:20:39.012Z,15.83
2018-06-20T02:21:39.031Z,15.77
2018-06-20T02:22:39.071Z,15.73
2018-06-20T02:23:39.060Z,15.69
2018-06-20T02:24:39.056Z,15.65
2018-06-20T02:25:39.064Z,15.61
2018-06-20T02:26:38.961Z,15.58
2018-06-20T02:27:38.973Z,15.55
2018-06-20T02:28:38.966Z,15.50
2018-06-20T02:29:39.058Z,15.44
2018-06-20T02:30:39.022Z,15.42
2018-06-20T02:31:39.036Z,15.37
2018-06-20T02:32:39.038Z,15.37
2018-06-20T02:33:39.040Z,15.33
2018-06-20T02:34:39.041Z,15.36
2018-06-20T02:35:39.040Z,15.36
2018-06-20T02:36:39.020Z,15.36
2018-06-20T02:37:38.971Z,15.42
2018-06-20T02:38:39.076Z,15.43
2018-06-20T02:39:39.131Z,15.46
2018-06-20T02:40:39.015Z,15.42
2018-06-20T02:41:38.943Z,15.37
2018-06-20T02:42:39.055Z,15.33
2018-06-20T02:43:39.050Z,15.32
2018-06-20T02:44:39.023Z,15.26
2018-06-20T02:45:39.008Z,15.22
2018-06-20T02:46:39.051Z,15.24
2018-06-20T02:47:39.058Z,15.26
2018-06-20T02:48:39.057Z,15.31
2018-06-20T02:49:39.054Z,15.32
2018-06-20T02:50:38.984Z,15.35
2018-06-20T02:51:39.034Z,15.39
2018-06-20T02:52:38.979Z,15.37
2018-06-20T02:53:39.036Z,15.39
2018-06-20T02:54:39.164Z,15.42
2018-06-20T02:55:39.055Z,15.42
2018-06-20T02:56:39.115Z,15.42
2018-06-20T02:57:38.997Z,15.42
2018-06-20T02:58:39.023Z,15.44
2018-06-20T02:59:39.061Z,15.44
2018-06-20T03:00:39.099Z,15.44
2018-06-20T03:01:38.957Z,15.44
2018-06-20T03:02:38.957Z,15.44
2018-06-20T03:03:38.973Z,15.44
2018-06-20T03:04:39.058Z,15.47
2018-06-20T03:05:38.917Z,15.50
2018-06-20T03:06:39.045Z,15.51
2018-06-20T03:07:39.060Z,15.57
2018-06-20T03:08:39.042Z,15.58
2018-06-20T03:09:39.060Z,15.62
2018-06-20T03:10:38.967Z,15.61
2018-06-20T03:11:39.049Z,15.62
2018-06-20T03:12:38.988Z,15.64
2018-06-20T03:13:39.104Z,15.64
2018-06-20T03:14:39.007Z,15.62
2018-06-20T03:15:39.089Z,15.61
2018-06-20T03:16:39.008Z,15.64
2018-06-20T03:17:39.071Z,15.61
2018-06-20T03:18:39.035Z,15.62
2018-06-20T03:19:39.101Z,15.61
2018-06-20T03:20:39.071Z,15.61
2018-06-20T03:21:39.068Z,15.61
2018-06-20T03:22:39.032Z,15.62
2018-06-20T03:23:39.064Z,15.59
2018-06-20T03:24:38.980Z,15.61
2018-06-20T03:25:38.954Z,15.57
2018-06-20T03:26:39.086Z,15.55
2018-06-20T03:27:38.948Z,15.55
2018-06-20T03:28:39.071Z,15.54
2018-06-20T03:29:38.955Z,15.54
2018-06-20T03:30:38.955Z,15.54
2018-06-20T03:31:39.070Z,15.54
2018-06-20T03:32:39.099Z,15.51
2018-06-20T03:33:39.058Z,15.50
2018-06-20T03:34:39.112Z,15.50
2018-06-20T03:35:39.055Z,15.51
2018-06-20T03:36:39.043Z,15.53
2018-06-20T03:37:39.041Z,15.51
2018-06-20T03:38:39.103Z,15.50
2018-06-20T03:39:39.080Z,15.48
2018-06-20T03:40:39.113Z,15.47
2018-06-20T03:41:39.111Z,15.47
2018-06-20T03:42:39.062Z,15.44
2018-06-20T03:43:39.064Z,15.42
2018-06-20T03:44:39.075Z,15.42
2018-06-20T03:45:38.960Z,15.42
2018-06-20T03:46:38.961Z,15.40
2018-06-20T03:47:39.047Z,15.42
2018-06-20T03:48:38.995Z,15.42
2018-06-20T03:49:38.957Z,15.39
2018-06-20T03:50:39.044Z,15.39
2018-06-20T03:51:39.021Z,15.40
2018-06-20T03:52:39.091Z,15.40
2018-06-20T03:53:39.097Z,15.42
2018-06-20T03:54:39.028Z,15.43
2018-06-20T03:55:39.028Z,15.46
2018-06-20T03:56:39.128Z,15.44
2018-06-20T03:57:39.095Z,15.44
2018-06-20T03:58:39.031Z,15.44
2018-06-20T03:59:39.099Z,15.44
2018-06-20T04:00:39.100Z,15.46
2018-06-20T04:01:39.034Z,15.48
2018-06-20T04:02:38.997Z,15.48
2018-06-20T04:03:39.058Z,15.51
2018-06-20T04:04:39.099Z,15.51
2018-06-20T04:05:39.041Z,15.51
2018-06-20T04:06:39.010Z,15.54
2018-06-20T04:07:39.106Z,15.55
2018-06-20T04:08:39.145Z,15.58
2018-06-20T04:09:39.109Z,15.58
2018-06-20T04:10:39.121Z,15.59
2018-06-20T04:11:39.104Z,15.61
2018-06-20T04:12:39.052Z,15.64
2018-06-20T04:13:39.045Z,15.66
2018-06-20T04:14:39.047Z,15.69
2018-06-20T04:15:39.042Z,15.70
2018-06-20T04:16:39.040Z,15.72
2018-06-20T04:17:39.107Z,15.75
2018-06-20T04:18:39.114Z,15.76
2018-06-20T04:19:39.112Z,15.76
2018-06-20T04:20:39.174Z,15.77
2018-06-20T04:21:39.113Z,15.79
2018-06-20T04:22:39.073Z,15.79
2018-06-20T04:23:39.112Z,15.82
2018-06-20T04:24:39.031Z,15.83
2018-06-20T04:25:39.111Z,15.86
2018-06-20T04:26:39.020Z,15.87
2018-06-20T04:27:39.091Z,15.90
2018-06-20T04:28:39.024Z,15.94
2018-06-20T04:29:39.119Z,15.97
2018-06-20T04:30:39.082Z,16.00
2018-06-20T04:31:39.040Z,16.05
2018-06-20T04:32:39.095Z,16.06
2018-06-20T04:33:39.115Z,16.09
2018-06-20T04:34:39.114Z,16.13
2018-06-20T04:35:39.040Z,16.18
2018-06-20T04:36:39.046Z,16.24
2018-06-20T04:37:39.084Z,16.25
2018-06-20T04:38:39.156Z,16.31
2018-06-20T04:39:39.045Z,16.33
2018-06-20T04:40:39.100Z,16.38
2018-06-20T04:41:39.095Z,16.38
2018-06-20T04:42:39.059Z,16.41
2018-06-20T04:43:39.123Z,16.39
2018-06-20T04:44:39.155Z,16.43
2018-06-20T04:45:39.127Z,16.46
2018-06-20T04:46:39.129Z,16.47
2018-06-20T04:47:39.058Z,16.47
2018-06-20T04:48:39.128Z,16.46
2018-06-20T04:49:39.064Z,16.47
2018-06-20T04:50:39.064Z,16.51
2018-06-20T04:51:39.068Z,16.52
2018-06-20T04:52:39.154Z,16.54
2018-06-20T04:53:39.130Z,16.51
2018-06-20T04:54:39.130Z,16.54
2018-06-20T04:55:39.087Z,16.54
2018-06-20T04:56:39.071Z,16.57
2018-06-20T04:57:39.038Z,16.59
2018-06-20T04:58:39.164Z,16.57
2018-06-20T04:59:39.163Z,16.54
2018-06-20T05:00:39.177Z,16.58
2018-06-20T05:01:39.131Z,16.58
2018-06-20T05:02:39.053Z,16.59
2018-06-20T05:03:39.095Z,16.59
2018-06-20T05:04:39.000Z,16.61
2018-06-20T05:05:39.095Z,16.62
2018-06-20T05:06:38.996Z,16.63
2018-06-20T05:07:39.036Z,16.66
2018-06-20T05:08:39.091Z,16.69
2018-06-20T05:09:39.002Z,16.72
2018-06-20T05:10:39.090Z,16.73
2018-06-20T05:11:39.093Z,16.76
2018-06-20T05:12:39.048Z,16.77
2018-06-20T05:13:39.121Z,16.81
2018-06-20T05:14:39.184Z,16.85
2018-06-20T05:15:39.173Z,16.91
2018-06-20T05:16:39.089Z,16.98
2018-06-20T05:17:39.121Z,17.03
2018-06-20T05:18:39.203Z,17.10
2018-06-20T05:19:39.108Z,17.16
2018-06-20T05:20:39.149Z,17.22
2018-06-20T05:21:39.076Z,17.26
2018-06-20T05:22:39.305Z,17.31
2018-06-20T05:23:39.129Z,17.36
2018-06-20T05:24:39.181Z,17.43
2018-06-20T05:25:39.191Z,17.47
2018-06-20T05:26:39.078Z,17.50
2018-06-20T05:27:39.154Z,17.53
2018-06-20T05:28:39.124Z,17.51
2018-06-20T05:29:39.124Z,17.55
2018-06-20T05:30:39.189Z,17.58
2018-06-20T05:31:39.078Z,17.65
2018-06-20T05:32:39.096Z,17.65
2018-06-20T05:33:39.165Z,17.69
2018-06-20T05:34:39.095Z,17.75
2018-06-20T05:35:39.161Z,17.83
2018-06-20T05:36:39.117Z,17.85
2018-06-20T05:37:39.167Z,17.87
2018-06-20T05:38:39.120Z,17.92
2018-06-20T05:39:39.102Z,17.94
2018-06-20T05:40:39.174Z,17.99
2018-06-20T05:41:39.105Z,18.03
2018-06-20T05:42:39.086Z,18.09
2018-06-20T05:43:39.165Z,18.10
2018-06-20T05:44:39.087Z,18.14
2018-06-20T05:45:39.112Z,18.17
2018-06-20T05:46:39.075Z,18.20
2018-06-20T05:47:39.193Z,18.24
2018-06-20T05:48:39.208Z,18.31
2018-06-20T05:49:39.193Z,18.41
2018-06-20T05:50:39.170Z,18.52
2018-06-20T05:51:39.091Z,18.66
2018-06-20T05:52:39.147Z,18.83
2018-06-20T05:53:39.152Z,18.98
2018-06-20T05:54:39.118Z,19.10
2018-06-20T05:55:39.148Z,19.27
2018-06-20T05:56:39.193Z,19.36
2018-06-20T05:57:39.216Z,19.39
2018-06-20T05:58:39.157Z,19.36
2018-06-20T05:59:39.171Z,19.39
2018-06-20T06:00:39.218Z,19.46
2018-06-20T06:01:39.136Z,19.55
2018-06-20T06:02:39.184Z,19.51
2018-06-20T06:03:39.187Z,19.50
2018-06-20T06:04:39.212Z,19.61
2018-06-20T06:05:39.142Z,19.77
2018-06-20T06:06:39.228Z,19.77
2018-06-20T06:07:39.184Z,19.84
2018-06-20T06:08:39.090Z,19.81
2018-06-20T06:09:39.145Z,19.84
2018-06-20T06:10:39.163Z,19.87
2018-06-20T06:11:39.152Z,19.98
2018-06-20T06:12:39.104Z,20.14
2018-06-20T06:13:39.144Z,20.34
2018-06-20T06:14:39.110Z,20.54
2018-06-20T06:15:39.062Z,20.66
2018-06-20T06:16:39.174Z,20.79
2018-06-20T06:17:39.124Z,20.93
2018-06-20T06:18:39.093Z,21.08
2018-06-20T06:19:39.108Z,21.14
2018-06-20T06:20:39.148Z,21.24
2018-06-20T06:21:39.175Z,21.32
2018-06-20T06:22:39.110Z,21.40
2018-06-20T06:23:39.179Z,21.31
2018-06-20T06:24:39.141Z,21.28
2018-06-20T06:25:39.100Z,21.49
2018-06-20T06:26:39.247Z,21.67
2018-06-20T06:27:39.116Z,21.89
2018-06-20T06:28:39.148Z,22.04
2018-06-20T06:29:39.185Z,22.14
2018-06-20T06:30:39.160Z,22.08
2018-06-20T06:31:39.226Z,21.80
2018-06-20T06:32:39.122Z,21.54
2018-06-20T06:33:39.198Z,21.67
2018-06-20T06:34:39.105Z,21.78
2018-06-20T06:35:39.074Z,21.73
2018-06-20T06:36:39.105Z,21.73
2018-06-20T06:37:39.185Z,21.80
2018-06-20T06:38:39.144Z,21.78
2018-06-20T06:39:39.109Z,21.78
2018-06-20T06:40:39.126Z,21.97
2018-06-20T06:41:39.218Z,21.90
2018-06-20T06:42:39.205Z,21.84
2018-06-20T06:43:39.169Z,21.89
2018-06-20T06:44:39.237Z,22.06
2018-06-20T06:45:39.205Z,22.14
2018-06-20T06:46:39.184Z,22.27
2018-06-20T06:47:39.210Z,22.56
2018-06-20T06:48:39.173Z,22.63
2018-06-20T06:49:39.284Z,22.79
2018-06-20T06:50:39.132Z,22.94
2018-06-20T06:51:39.114Z,22.93
2018-06-20T06:52:39.131Z,22.91
2018-06-20T06:53:39.158Z,22.64
2018-06-20T06:54:39.208Z,22.70
2018-06-20T06:55:39.205Z,22.82
2018-06-20T06:56:39.126Z,22.82
2018-06-20T06:57:39.147Z,22.76
2018-06-20T06:58:39.097Z,22.72
2018-06-20T06:59:39.172Z,22.61
2018-06-20T07:00:39.207Z,22.39
2018-06-20T07:01:39.092Z,22.38
2018-06-20T07:02:39.124Z,22.36
2018-06-20T07:03:39.138Z,22.50
2018-06-20T07:04:39.208Z,22.61
2018-06-20T07:05:39.215Z,22.88
2018-06-20T07:06:39.127Z,23.08
2018-06-20T07:07:39.218Z,23.37
2018-06-20T07:08:39.221Z,23.65
2018-06-20T07:09:39.214Z,23.72
2018-06-20T07:10:39.212Z,23.45
2018-06-20T07:11:39.166Z,23.35
2018-06-20T07:14:39.163Z,23.90
2018-06-20T07:15:39.151Z,23.93
2018-06-20T07:16:39.243Z,24.12
2018-06-20T07:17:39.181Z,24.26
2018-06-20T07:18:39.257Z,24.12
2018-06-20T07:19:39.259Z,23.98
2018-06-20T07:20:39.150Z,23.75
2018-06-20T07:21:39.169Z,23.60
2018-06-20T07:22:39.262Z,23.54
2018-06-20T07:23:39.192Z,23.53
2018-06-20T07:24:39.375Z,23.31
2018-06-20T07:25:39.142Z,23.27
2018-06-20T07:26:39.260Z,23.38
2018-06-20T07:27:39.276Z,23.67
2018-06-20T07:28:39.201Z,23.93
2018-06-20T07:29:39.257Z,23.74
2018-06-20T07:30:39.284Z,23.63
2018-06-20T07:31:39.155Z,23.61
2018-06-20T07:32:39.285Z,23.60
2018-06-20T07:33:39.277Z,23.50
2018-06-20T07:34:39.142Z,23.41
2018-06-20T07:35:39.424Z,23.30
2018-06-20T07:36:39.266Z,23.17
2018-06-20T07:37:39.208Z,23.05
2018-06-20T07:38:39.264Z,23.00
2018-06-20T07:39:39.218Z,22.97
2018-06-20T07:40:39.185Z,22.98
2018-06-20T07:41:39.164Z,22.88
2018-06-20T07:42:39.274Z,22.70
2018-06-20T07:43:39.171Z,22.59
2018-06-20T07:44:39.184Z,22.35
2018-06-20T07:45:39.226Z,22.25
2018-06-20T07:46:39.251Z,22.25
2018-06-20T07:47:39.147Z,22.17
2018-06-20T07:48:39.152Z,22.08
2018-06-20T07:49:39.221Z,22.12
2018-06-20T07:50:39.291Z,22.17
2018-06-20T07:51:39.209Z,22.25
2018-06-20T07:52:39.186Z,22.25
2018-06-20T07:53:39.188Z,22.27
2018-06-20T07:54:39.183Z,22.21
2018-06-20T07:55:39.255Z,22.23
2018-06-20T07:56:39.254Z,22.27
2018-06-20T07:57:39.324Z,22.27
2018-06-20T07:58:39.287Z,22.41
2018-06-20T07:59:39.192Z,22.50
2018-06-20T08:00:39.391Z,22.61
2018-06-20T08:01:39.261Z,22.72
2018-06-20T08:02:39.191Z,22.79
2018-06-20T08:03:39.291Z,22.75
2018-06-20T08:04:39.191Z,22.79
2018-06-20T08:05:39.259Z,22.91
2018-06-20T08:06:39.196Z,22.97
2018-06-20T08:07:39.259Z,22.94
2018-06-20T08:08:39.280Z,23.08
2018-06-20T08:09:39.198Z,23.19
2018-06-20T08:10:39.197Z,23.15
2018-06-20T08:11:39.265Z,23.13
2018-06-20T08:12:39.191Z,22.84
2018-06-20T08:13:39.292Z,22.65
2018-06-20T08:14:39.304Z,22.68
2018-06-20T08:15:39.269Z,22.71
2018-06-20T08:16:39.265Z,22.68
2018-06-20T08:17:39.295Z,22.61
2018-06-20T08:18:39.265Z,22.61
2018-06-20T08:19:39.206Z,22.63
2018-06-20T08:20:39.193Z,22.70
2018-06-20T08:21:39.237Z,22.76
2018-06-20T08:22:39.342Z,22.83
2018-06-20T08:23:39.287Z,22.87
2018-06-20T08:24:39.216Z,22.86
2018-06-20T08:25:39.272Z,22.87
2018-06-20T08:26:39.271Z,22.93
2018-06-20T08:27:39.275Z,22.93
2018-06-20T08:28:39.251Z,22.93
2018-06-20T08:29:39.318Z,22.82
2018-06-20T08:30:39.275Z,22.71
2018-06-20T08:31:39.197Z,22.79
2018-06-20T08:32:39.280Z,22.87
2018-06-20T08:33:39.208Z,22.95
2018-06-20T08:34:39.209Z,23.02
2018-06-20T08:35:39.278Z,23.13
2018-06-20T08:36:39.209Z,23.17
2018-06-20T08:37:39.212Z,23.15
2018-06-20T08:38:39.214Z,23.13
2018-06-20T08:39:39.216Z,23.11
2018-06-20T08:40:39.283Z,23.04
2018-06-20T08:41:39.288Z,23.00
2018-06-20T08:42:39.275Z,22.97
2018-06-20T08:43:39.239Z,22.98
2018-06-20T08:44:39.203Z,23.09
2018-06-20T08:45:39.189Z,23.02
2018-06-20T08:46:39.158Z,22.98
2018-06-20T08:47:39.239Z,22.97
2018-06-20T08:48:39.278Z,22.94
2018-06-20T08:49:39.195Z,22.91
2018-06-20T08:50:39.257Z,22.93
2018-06-20T08:51:39.249Z,22.93
2018-06-20T08:52:39.262Z,22.98
2018-06-20T08:53:39.255Z,22.95
2018-06-20T08:54:39.320Z,22.88
2018-06-20T08:55:39.276Z,22.88
2018-06-20T08:56:39.365Z,22.87
2018-06-20T08:57:39.248Z,22.94
2018-06-20T08:58:39.213Z,22.87
2018-06-20T08:59:39.272Z,22.80
2018-06-20T09:00:39.296Z,22.77
2018-06-20T09:01:39.271Z,22.65
2018-06-20T09:02:39.304Z,22.68
2018-06-20T09:03:39.294Z,22.68
2018-06-20T09:04:39.232Z,22.72
2018-06-20T09:05:39.298Z,22.70
2018-06-20T09:06:39.303Z,22.65
2018-06-20T09:07:39.306Z,22.67
2018-06-20T09:08:39.283Z,22.64
2018-06-20T09:09:39.298Z,22.64
2018-06-20T09:10:39.272Z,22.63
2018-06-20T09:11:39.237Z,22.59
2018-06-20T09:12:39.236Z,22.56
2018-06-20T09:13:39.338Z,22.46
2018-06-20T09:14:39.204Z,22.42
2018-06-20T09:15:39.266Z,22.35
2018-06-20T09:16:39.318Z,22.34
2018-06-20T09:17:39.263Z,22.38
2018-06-20T09:18:39.280Z,22.31
2018-06-20T09:19:39.307Z,22.34
2018-06-20T09:20:39.210Z,22.36
2018-06-20T09:21:39.308Z,22.39
2018-06-20T09:22:39.354Z,22.39
2018-06-20T09:23:39.240Z,22.43
2018-06-20T09:24:39.200Z,22.43
2018-06-20T09:25:39.246Z,22.49
2018-06-20T09:26:39.261Z,22.56
2018-06-20T09:27:39.239Z,22.59
2018-06-20T09:28:39.175Z,22.57
2018-06-20T09:29:39.248Z,22.57
2018-06-20T09:30:39.274Z,22.56
2018-06-20T09:31:39.248Z,22.54
2018-06-20T09:32:39.297Z,22.65
2018-06-20T09:33:39.202Z,22.64
2018-06-20T09:34:39.245Z,22.61
2018-06-20T09:35:39.191Z,22.64
2018-06-20T09:36:39.196Z,22.63
2018-06-20T09:37:39.223Z,22.64
2018-06-20T09:38:39.268Z,22.67
2018-06-20T09:39:39.164Z,22.76
2018-06-20T09:40:39.140Z,22.88
2018-06-20T09:41:39.185Z,23.00
2018-06-20T09:42:39.179Z,23.11
2018-06-20T09:43:39.357Z,23.16
2018-06-20T09:44:39.302Z,23.15
2018-06-20T09:45:39.287Z,23.13
2018-06-20T09:46:39.304Z,23.12
2018-06-20T09:47:39.345Z,23.09
2018-06-20T09:48:39.282Z,23.02
2018-06-20T09:49:39.328Z,23.04
2018-06-20T09:50:39.298Z,23.01
2018-06-20T09:51:39.293Z,23.05
2018-06-20T09:52:39.290Z,23.08
2018-06-20T09:53:39.333Z,23.05
2018-06-20T09:54:39.283Z,23.11
2018-06-20T09:56:39.267Z,23.33
2018-06-20T09:57:39.295Z,23.53
2018-06-20T09:58:39.337Z,23.71
2018-06-20T09:59:39.301Z,23.85
2018-06-20T10:00:39.407Z,23.86
2018-06-20T10:01:39.339Z,23.82
2018-06-20T10:02:39.267Z,23.80
2018-06-20T10:03:39.358Z,23.72
2018-06-20T10:04:39.246Z,23.68
2018-06-20T10:05:39.303Z,23.78
2018-06-20T10:06:39.398Z,23.80
2018-06-20T10:07:39.366Z,23.91
2018-06-20T10:08:39.295Z,24.05
2018-06-20T10:09:39.244Z,24.12
2018-06-20T10:10:39.317Z,24.04
2018-06-20T10:11:39.298Z,23.94
2018-06-20T10:12:39.364Z,23.86
2018-06-20T10:13:39.381Z,23.75
2018-06-20T10:14:39.376Z,23.64
2018-06-20T10:15:39.306Z,23.60
2018-06-20T10:16:39.379Z,23.61
2018-06-20T10:17:39.246Z,23.68
2018-06-20T10:18:39.306Z,23.68
2018-06-20T10:19:39.249Z,23.80
2018-06-20T10:20:39.260Z,23.93
2018-06-20T10:21:39.285Z,23.78
2018-06-20T10:22:39.247Z,23.79
2018-06-20T10:23:39.377Z,23.79
2018-06-20T10:24:39.352Z,23.82
2018-06-20T10:25:39.330Z,23.93
2018-06-20T10:26:39.330Z,24.08
2018-06-20T10:27:39.330Z,24.19
2018-06-20T10:28:39.598Z,24.37
2018-06-20T10:29:39.378Z,24.42
2018-06-20T10:30:39.380Z,24.38
2018-06-20T10:31:39.333Z,24.48
2018-06-20T10:32:39.357Z,24.59
2018-06-20T10:33:39.312Z,24.67
2018-06-20T10:34:39.381Z,24.85
2018-06-20T10:35:39.385Z,24.89
2018-06-20T10:36:39.256Z,24.82
2018-06-20T10:37:39.394Z,25.01
2018-06-20T10:38:39.316Z,25.33
2018-06-20T10:39:39.339Z,25.38
2018-06-20T10:40:39.391Z,25.52
2018-06-20T10:41:39.361Z,25.57
2018-06-20T10:42:39.302Z,25.59
2018-06-20T10:43:39.297Z,25.33
2018-06-20T10:44:39.300Z,25.24
2018-06-20T10:45:39.298Z,25.35
2018-06-20T10:46:39.301Z,25.20
2018-06-20T10:47:39.376Z,25.11
2018-06-20T10:48:39.297Z,25.13
2018-06-20T10:49:39.378Z,25.11
2018-06-20T10:50:39.299Z,25.05
2018-06-20T10:51:39.391Z,25.00
2018-06-20T10:52:39.372Z,25.06
2018-06-20T10:53:39.243Z,25.23
2018-06-20T10:54:39.369Z,25.31
2018-06-20T10:55:39.241Z,25.38
2018-06-20T10:56:39.276Z,25.68
2018-06-20T10:57:39.307Z,25.92
2018-06-20T10:58:39.368Z,26.30
2018-06-20T10:59:39.241Z,26.34
2018-06-20T11:00:39.253Z,26.30
2018-06-20T11:01:39.285Z,26.11
2018-06-20T11:02:39.329Z,26.21
2018-06-20T11:03:39.341Z,26.13
2018-06-20T11:04:39.379Z,26.11
2018-06-20T11:05:39.340Z,26.07
2018-06-20T11:06:39.283Z,26.10
2018-06-20T11:07:39.347Z,25.97
2018-06-20T11:08:39.378Z,25.81
2018-06-20T11:09:39.447Z,25.88
2018-06-20T11:10:39.414Z,26.04
2018-06-20T11:11:39.438Z,26.26
2018-06-20T11:12:39.378Z,26.07
2018-06-20T11:13:39.385Z,26.06
2018-06-20T11:14:39.383Z,25.89
2018-06-20T11:15:39.415Z,26.00
2018-06-20T11:16:39.386Z,26.24
2018-06-20T11:17:39.323Z,26.44
2018-06-20T11:18:39.387Z,26.52
2018-06-20T11:19:39.327Z,26.48
2018-06-20T11:20:39.319Z,26.13
2018-06-20T11:21:39.364Z,25.63
2018-06-20T11:22:39.386Z,25.42
2018-06-20T11:23:39.324Z,25.37
2018-06-20T11:24:39.391Z,25.33
2018-06-20T11:25:39.326Z,25.34
2018-06-20T11:26:39.389Z,25.34
2018-06-20T11:27:39.332Z,25.31
2018-06-20T11:28:39.331Z,25.26
2018-06-20T11:29:39.390Z,25.24
2018-06-20T11:30:39.391Z,25.16
2018-06-20T11:31:39.332Z,25.23
2018-06-20T11:32:39.403Z,25.42
2018-06-20T11:33:39.402Z,25.40
2018-06-20T11:34:39.299Z,25.48
2018-06-20T11:35:39.365Z,25.63
2018-06-20T11:36:39.426Z,25.81
2018-06-20T11:37:39.431Z,26.18
2018-06-20T11:38:39.324Z,26.51
2018-06-20T11:39:39.309Z,26.75
2018-06-20T11:40:39.322Z,26.95
2018-06-20T11:41:39.398Z,27.06
2018-06-20T11:42:39.383Z,27.29
2018-06-20T11:43:39.307Z,27.00
2018-06-20T11:44:39.302Z,27.06
2018-06-20T11:45:39.398Z,26.97
2018-06-20T11:46:39.342Z,26.82
2018-06-20T11:47:39.310Z,26.90
2018-06-20T11:48:39.299Z,26.77
2018-06-20T11:49:39.387Z,26.68
2018-06-20T11:50:39.438Z,26.95
2018-06-20T11:51:39.319Z,27.03
2018-06-20T11:52:39.441Z,27.08
2018-06-20T11:53:39.344Z,27.26
2018-06-20T11:54:39.409Z,27.17
2018-06-20T11:55:39.410Z,27.06
2018-06-20T11:56:39.346Z,27.29
2018-06-20T11:57:39.369Z,27.23
2018-06-20T11:58:39.413Z,26.99
2018-06-20T11:59:39.313Z,26.99
2018-06-20T12:00:39.414Z,27.06
2018-06-20T12:01:39.414Z,27.11
2018-06-20T12:02:39.347Z,27.21
2018-06-20T12:03:39.389Z,27.30
2018-06-20T12:04:39.389Z,27.51
2018-06-20T12:05:39.393Z,27.62
2018-06-20T12:06:39.384Z,27.52
2018-06-20T12:07:39.442Z,27.55
2018-06-20T12:08:39.475Z,27.61
2018-06-20T12:09:39.323Z,27.61
2018-06-20T12:10:39.401Z,27.61
2018-06-20T12:11:39.454Z,27.82
2018-06-20T12:12:39.491Z,27.88
2018-06-20T12:13:39.517Z,27.96
2018-06-20T12:14:39.403Z,27.98
2018-06-20T12:15:39.386Z,28.13
2018-06-20T12:16:39.461Z,28.26
2018-06-20T12:17:39.349Z,28.43
2018-06-20T12:18:39.402Z,28.58
2018-06-20T12:19:39.328Z,28.29
2018-06-20T12:20:39.403Z,27.98
2018-06-20T12:21:39.401Z,28.13
2018-06-20T12:22:39.348Z,28.39
2018-06-20T12:23:39.428Z,28.60
2018-06-20T12:24:39.412Z,28.61
2018-06-20T12:25:39.405Z,28.31
2018-06-20T12:26:39.403Z,28.13
2018-06-20T12:27:39.407Z,27.99
2018-06-20T12:28:39.410Z,27.93
2018-06-20T12:29:39.401Z,27.88
2018-06-20T12:30:39.342Z,27.91
2018-06-20T12:31:39.392Z,27.55
2018-06-20T12:32:39.410Z,27.66
2018-06-20T12:33:39.342Z,27.33
2018-06-20T12:34:39.358Z,27.33
2018-06-20T12:35:39.424Z,27.46
2018-06-20T12:36:39.387Z,27.46
2018-06-20T12:37:39.378Z,27.23
2018-06-20T12:38:39.434Z,27.36
2018-06-20T12:39:39.349Z,27.52
2018-06-20T12:40:39.434Z,27.41
2018-06-20T12:41:39.430Z,27.44
2018-06-20T12:42:39.453Z,27.37
2018-06-20T12:43:39.423Z,27.30
2018-06-20T12:44:39.472Z,27.44
2018-06-20T12:45:39.480Z,27.55
2018-06-20T12:46:39.400Z,27.71
2018-06-20T12:47:39.419Z,27.86
2018-06-20T12:48:39.349Z,27.92
2018-06-20T12:49:39.471Z,27.99
2018-06-20T12:50:39.421Z,28.02
2018-06-20T12:51:39.447Z,28.06
2018-06-20T12:52:39.539Z,28.31
2018-06-20T12:53:39.423Z,28.42
2018-06-20T12:54:39.356Z,28.65
2018-06-20T12:55:39.490Z,28.36